Time;durP1;ratioP1;P1;durP2;ratioP2;P2;SDS_P1;SDS_P2;PMS_P1;PMS_P2;Temp;Humidity;BMP_temperature;BMP_pressure;BME280_temperature;BME280_humidity;BME280_pressure;Samples;Min_cycle;Max_cycle;Signal;HPM_P1;HPM_P2
2022/04/09 00:02:25;;;;;;;11.65;5.25;;;;;;;;;;4962669;28;20053;-67
2022/04/09 00:04:56;;;;;;;13.07;5.38;;;;;;;;;;4992558;28;20058;-67
2022/04/09 00:07:26;;;;;;;11.32;4.90;;;;;;;;;;4971923;28;20061;-67
2022/04/09 00:09:57;;;;;;;13.57;6.57;;;;;;;;;;5011099;28;20041;-67
2022/04/09 00:12:28;;;;;;;9.93;4.75;;;;;;;;;;5011133;28;20441;-67
2022/04/09 00:14:58;;;;;;;11.60;4.95;;;;;;;;;;5010883;28;20080;-68
2022/04/09 00:17:29;;;;;;;9.02;4.55;;;;;;;;;;5010738;28;20050;-66
2022/04/09 00:20:00;;;;;;;8.93;4.93;;;;;;;;;;5010600;28;20057;-66
2022/04/09 00:22:31;;;;;;;10.20;5.43;;;;;;;;;;4962241;28;20520;-66
2022/04/09 00:25:01;;;;;;;9.40;5.00;;;;;;;;;;4978297;28;20556;-67
2022/04/09 00:27:32;;;;;;;13.07;5.57;;;;;;;;;;4994797;28;20097;-66
2022/04/09 00:30:08;;;;;;;15.60;5.68;;;;;;;;;;5010582;28;20050;-67
2022/04/09 00:32:39;;;;;;;12.43;5.68;;;;;;;;;;4990631;28;20065;-67
2022/04/09 00:35:09;;;;;;;14.35;5.50;;;;;;;;;;4991152;28;20050;-67
2022/04/09 00:37:48;;;;;;;18.10;5.88;;;;;;;;;;5006954;28;20054;-67
2022/04/09 00:40:23;;;;;;;17.55;5.53;;;;;;;;;;4967816;28;20047;-67
2022/04/09 00:42:54;;;;;;;10.93;5.10;;;;;;;;;;4951887;29;20055;-67
2022/04/09 00:45:24;;;;;;;12.95;5.38;;;;;;;;;;4952067;29;20095;-67
2022/04/09 00:47:55;;;;;;;12.15;5.65;;;;;;;;;;4952063;29;20067;-68
2022/04/09 00:50:26;;;;;;;11.13;5.65;;;;;;;;;;4967763;28;20423;-68
2022/04/09 00:53:01;;;;;;;12.40;4.80;;;;;;;;;;4951334;28;20423;-68
2022/04/09 00:58:25;;;;;;;11.10;5.57;;;;;;;;;;4990805;28;20055;-68
2022/04/09 01:00:56;;;;;;;12.50;6.10;;;;;;;;;;4951711;29;20051;-67
2022/04/09 01:03:28;;;;;;;12.57;5.85;;;;;;;;;;4920077;29;20423;-67
2022/04/09 01:06:02;;;;;;;15.23;5.72;;;;;;;;;;4951496;29;20055;-70
2022/04/09 01:08:34;;;;;;;13.18;5.43;;;;;;;;;;4920022;29;20530;-68
2022/04/09 01:11:05;;;;;;;11.88;5.57;;;;;;;;;;4967440;28;20055;-67
2022/04/09 01:13:36;;;;;;;10.48;5.13;;;;;;;;;;4901427;29;20542;-68
2022/04/09 01:16:07;;;;;;;11.95;5.05;;;;;;;;;;4917246;28;20058;-68
2022/04/09 01:18:41;;;;;;;13.38;5.78;;;;;;;;;;4932222;29;20052;-67
2022/04/09 01:21:13;;;;;;;10.73;5.13;;;;;;;;;;4913017;29;20052;-67
2022/04/09 01:23:44;;;;;;;10.90;5.18;;;;;;;;;;4913465;29;20060;-67
2022/04/09 01:26:15;;;;;;;10.00;5.57;;;;;;;;;;4912982;29;20048;-67
2022/04/09 01:28:47;;;;;;;12.95;5.03;;;;;;;;;;4878834;29;20448;-67
2022/04/09 01:31:20;;;;;;;12.40;6.32;;;;;;;;;;4890164;29;20057;-67
2022/04/09 01:33:51;;;;;;;13.77;5.80;;;;;;;;;;4891339;29;20060;-68
2022/04/09 01:36:21;;;;;;;9.63;4.97;;;;;;;;;;4844772;29;20076;-67
2022/04/09 01:38:52;;;;;;;11.00;5.57;;;;;;;;;;4898671;29;20052;-68
2022/04/09 01:41:24;;;;;;;15.52;5.68;;;;;;;;;;4913299;29;20064;-67
2022/04/09 01:44:00;;;;;;;12.68;5.72;;;;;;;;;;4871148;29;20158;-67
2022/04/09 01:46:31;;;;;;;13.23;5.25;;;;;;;;;;4931871;29;20054;-67
2022/04/09 01:49:04;;;;;;;14.88;5.90;;;;;;;;;;4947975;29;20055;-67
2022/04/09 01:51:34;;;;;;;10.07;5.20;;;;;;;;;;4962861;28;20051;-67
2022/04/09 01:54:05;;;;;;;20.13;5.07;;;;;;;;;;4951053;29;20063;-67
2022/04/09 01:56:36;;;;;;;16.55;5.28;;;;;;;;;;4987255;28;20054;-67
2022/04/09 01:59:06;;;;;;;17.85;4.78;;;;;;;;;;4970141;28;20055;-68
2022/04/09 02:01:37;;;;;;;13.48;4.88;;;;;;;;;;4970267;28;20055;-67
2022/04/09 02:04:08;;;;;;;13.60;4.97;;;;;;;;;;4970585;28;20514;-68
2022/04/09 02:06:39;;;;;;;10.13;4.72;;;;;;;;;;4943368;29;20161;-68
2022/04/09 02:09:13;;;;;;;13.75;4.43;;;;;;;;;;4973161;28;20663;-67
2022/04/09 02:11:45;;;;;;;8.13;4.53;;;;;;;;;;4989615;28;20050;-67
2022/04/09 02:14:16;;;;;;;12.13;4.70;;;;;;;;;;4989616;28;20549;-68
2022/04/09 02:16:46;;;;;;;8.68;4.32;;;;;;;;;;4961164;28;20065;-68
2022/04/09 02:19:18;;;;;;;8.10;4.60;;;;;;;;;;4993028;28;20054;-68
2022/04/09 02:21:49;;;;;;;9.18;4.57;;;;;;;;;;4952186;28;20075;-68
2022/04/09 02:24:20;;;;;;;7.57;4.72;;;;;;;;;;4905616;29;20103;-68
2022/04/09 02:26:50;;;;;;;10.20;4.53;;;;;;;;;;4897458;29;20473;-67
2022/04/09 02:29:21;;;;;;;8.77;4.85;;;;;;;;;;4907816;29;20063;-67
2022/04/09 02:31:53;;;;;;;10.50;5.18;;;;;;;;;;4915890;29;20048;-68
2022/04/09 02:34:25;;;;;;;8.60;4.63;;;;;;;;;;4916525;29;20495;-67
2022/04/09 02:36:56;;;;;;;9.60;4.63;;;;;;;;;;4927036;29;20059;-68
2022/04/09 02:39:27;;;;;;;8.85;4.28;;;;;;;;;;4915981;29;20048;-67
2022/04/09 02:41:59;;;;;;;6.93;4.03;;;;;;;;;;4878222;29;20049;-68
2022/04/09 02:44:31;;;;;;;10.82;4.32;;;;;;;;;;4897090;29;20052;-67
2022/04/09 02:47:02;;;;;;;9.93;4.60;;;;;;;;;;4897226;29;20500;-67
2022/04/09 02:49:33;;;;;;;11.05;4.85;;;;;;;;;;4881596;29;20064;-67
2022/04/09 02:52:07;;;;;;;8.20;4.80;;;;;;;;;;4886262;29;20061;-67
2022/04/09 02:54:37;;;;;;;7.18;4.65;;;;;;;;;;4878472;29;20056;-68
2022/04/09 02:57:08;;;;;;;9.70;4.80;;;;;;;;;;4867617;29;20061;-67
2022/04/09 02:59:45;;;;;;;11.05;4.82;;;;;;;;;;4889600;29;20052;-67
2022/04/09 03:02:16;;;;;;;8.55;5.00;;;;;;;;;;4900928;29;20060;-68
2022/04/09 03:04:47;;;;;;;9.98;4.55;;;;;;;;;;4896616;29;20059;-68
2022/04/09 03:07:18;;;;;;;7.82;4.50;;;;;;;;;;4896661;29;20050;-67
2022/04/09 03:09:48;;;;;;;14.73;4.78;;;;;;;;;;4896732;29;20065;-68
2022/04/09 03:12:20;;;;;;;19.48;4.53;;;;;;;;;;4896825;29;20059;-68
2022/04/09 03:14:50;;;;;;;14.60;4.45;;;;;;;;;;4881361;29;20083;-67
2022/04/09 03:17:20;;;;;;;11.00;5.63;;;;;;;;;;4896382;29;20061;-68
2022/04/09 03:19:51;;;;;;;9.93;4.63;;;;;;;;;;4884013;29;20535;-67
2022/04/09 03:22:23;;;;;;;8.68;4.53;;;;;;;;;;4915061;29;20074;-67
2022/04/09 03:24:59;;;;;;;19.33;4.43;;;;;;;;;;4899347;29;20420;-68
2022/04/09 03:27:31;;;;;;;19.00;4.90;;;;;;;;;;4914504;29;20496;-67
2022/04/09 03:30:04;;;;;;;18.65;4.82;;;;;;;;;;4940265;29;20055;-67
2022/04/09 03:32:37;;;;;;;14.52;5.40;;;;;;;;;;4934001;29;20051;-68
2022/04/09 03:35:12;;;;;;;9.55;4.63;;;;;;;;;;4934011;29;20051;-67
2022/04/09 03:37:45;;;;;;;16.10;4.32;;;;;;;;;;4914766;29;20068;-67
2022/04/09 03:40:20;;;;;;;19.85;4.55;;;;;;;;;;4887551;29;20057;-67
2022/04/09 03:42:51;;;;;;;15.18;4.70;;;;;;;;;;4886607;29;20059;-67
2022/04/09 03:45:21;;;;;;;14.73;5.20;;;;;;;;;;4914865;29;20052;-67
2022/04/09 03:47:53;;;;;;;15.13;6.03;;;;;;;;;;4914540;29;20055;-67
2022/04/09 03:50:24;;;;;;;13.18;6.10;;;;;;;;;;4898825;29;20571;-67
2022/04/09 03:52:55;;;;;;;15.30;5.97;;;;;;;;;;4914467;29;20452;-67
2022/04/09 03:55:28;;;;;;;12.35;5.53;;;;;;;;;;4914769;29;20079;-67
2022/04/09 03:58:01;;;;;;;12.63;5.85;;;;;;;;;;4914233;29;20063;-67
2022/04/09 04:00:33;;;;;;;13.45;6.15;;;;;;;;;;4900901;29;20425;-67
2022/04/09 04:03:05;;;;;;;13.52;5.88;;;;;;;;;;4864305;29;20398;-67
2022/04/09 04:05:37;;;;;;;15.13;6.13;;;;;;;;;;4914365;29;20460;-67
2022/04/09 04:08:08;;;;;;;14.25;5.63;;;;;;;;;;4929515;29;20060;-67
2022/04/09 04:10:40;;;;;;;17.83;5.78;;;;;;;;;;4914067;29;20572;-67
2022/04/09 04:13:24;;;;;;;11.75;5.63;;;;;;;;;;4881074;29;20059;-67
2022/04/09 04:15:59;;;;;;;11.90;5.50;;;;;;;;;;4895108;29;20049;-67
2022/04/09 04:18:30;;;;;;;12.23;5.47;;;;;;;;;;4885267;29;20462;-66
2022/04/09 04:21:02;;;;;;;10.63;5.60;;;;;;;;;;4870360;29;20421;-67
2022/04/09 04:23:33;;;;;;;11.93;6.00;;;;;;;;;;4876721;29;20053;-67
2022/04/09 04:26:16;;;;;;;10.02;5.18;;;;;;;;;;4909857;29;20048;-67
2022/04/09 04:28:56;;;;;;;9.93;5.18;;;;;;;;;;4895137;29;20060;-67
2022/04/09 04:31:28;;;;;;;;;;;;;;;;;;4895354;29;20170;-67
2022/04/09 04:34:02;;;;;;;11.70;5.57;;;;;;;;;;4913651;29;19934;-67
2022/04/09 04:36:39;;;;;;;11.48;5.22;;;;;;;;;;4880437;29;20064;-67
2022/04/09 04:39:12;;;;;;;13.38;5.75;;;;;;;;;;4880168;29;20060;-67
2022/04/09 04:41:48;;;;;;;10.68;5.13;;;;;;;;;;4857453;29;20053;-67
2022/04/09 04:44:19;;;;;;;12.73;5.35;;;;;;;;;;4833633;29;20050;-67
2022/04/09 04:46:54;;;;;;;11.18;4.85;;;;;;;;;;4804874;29;20062;-67
2022/04/09 04:49:26;;;;;;;7.97;4.63;;;;;;;;;;4826498;29;20061;-67
2022/04/09 04:52:03;;;;;;;15.63;4.78;;;;;;;;;;4831266;29;20054;-67
2022/04/09 04:54:36;;;;;;;12.20;5.13;;;;;;;;;;4853726;29;20136;-67
2022/04/09 04:57:07;;;;;;;9.50;4.18;;;;;;;;;;4841114;29;20126;-67
2022/04/09 04:59:38;;;;;;;7.70;4.18;;;;;;;;;;4839272;29;20082;-68
2022/04/09 05:02:09;;;;;;;10.27;4.88;;;;;;;;;;4857343;29;20053;-67
2022/04/09 05:04:40;;;;;;;8.60;4.53;;;;;;;;;;4842029;29;20064;-67
2022/04/09 05:07:12;;;;;;;7.82;4.35;;;;;;;;;;4838657;29;20458;-67
2022/04/09 05:09:42;;;;;;;12.95;5.03;;;;;;;;;;4852591;29;20050;-67
2022/04/09 05:12:13;;;;;;;13.32;5.07;;;;;;;;;;4870388;29;20057;-68
2022/04/09 05:14:45;;;;;;;8.18;4.28;;;;;;;;;;4875947;29;20072;-67
2022/04/09 05:17:19;;;;;;;8.98;4.45;;;;;;;;;;4875559;29;20057;-68
2022/04/09 05:19:50;;;;;;;9.07;4.35;;;;;;;;;;4879878;29;20061;-67
2022/04/09 05:22:21;;;;;;;13.10;4.75;;;;;;;;;;4876026;29;20052;-67
2022/04/09 05:25:00;;;;;;;14.07;4.55;;;;;;;;;;4880998;29;20050;-67
2022/04/09 05:27:31;;;;;;;17.80;4.40;;;;;;;;;;4881596;29;20060;-67
2022/04/09 05:30:08;;;;;;;7.88;3.55;;;;;;;;;;4875409;29;20075;-67
2022/04/09 05:32:43;;;;;;;12.20;3.53;;;;;;;;;;4888235;29;20596;-68
2022/04/09 05:35:14;;;;;;;;;;;;;;;;;;4926456;29;20055;-67
2022/04/09 05:37:51;;;;;;;8.63;3.15;;;;;;;;;;4913203;29;19923;-67
2022/04/09 05:40:25;;;;;;;9.20;3.60;;;;;;;;;;4931342;29;20059;-67
2022/04/09 05:42:59;;;;;;;7.13;3.35;;;;;;;;;;4931749;29;20503;-67
2022/04/09 05:45:29;;;;;;;7.03;3.15;;;;;;;;;;4900063;29;20056;-68
2022/04/09 05:48:02;;;;;;;8.55;3.20;;;;;;;;;;4912990;29;20063;-67
2022/04/09 05:50:44;;;;;;;8.35;3.72;;;;;;;;;;4857120;29;20391;-67
2022/04/09 05:53:16;;;;;;;9.07;3.88;;;;;;;;;;4869576;29;20055;-67
2022/04/09 05:55:48;;;;;;;7.00;3.22;;;;;;;;;;4925734;29;20070;-67
2022/04/09 05:58:19;;;;;;;7.57;3.65;;;;;;;;;;4878470;29;20462;-68
2022/04/09 06:00:54;;;;;;;7.13;3.65;;;;;;;;;;4916369;29;20059;-67
2022/04/09 06:03:29;;;;;;;6.20;3.45;;;;;;;;;;4882730;29;20417;-67
2022/04/09 06:06:00;;;;;;;6.78;3.60;;;;;;;;;;4897224;29;20098;-68
2022/04/09 06:08:45;;;;;;;8.35;3.47;;;;;;;;;;4830072;29;20057;-68
2022/04/09 06:11:30;;;;;;;7.72;3.45;;;;;;;;;;4851929;29;20395;-67
2022/04/09 06:14:08;;;;;;;8.07;3.63;;;;;;;;;;4878696;29;20552;-68
2022/04/09 06:16:40;;;;;;;8.43;3.72;;;;;;;;;;4860914;29;20061;-68
2022/04/09 06:19:12;;;;;;;8.80;3.70;;;;;;;;;;4893464;29;20064;-67
2022/04/09 06:21:44;;;;;;;11.55;3.40;;;;;;;;;;4878614;29;20049;-68
2022/04/09 06:24:19;;;;;;;13.63;4.10;;;;;;;;;;4847575;29;20057;-67
2022/04/09 06:26:51;;;;;;;10.35;3.80;;;;;;;;;;4860414;29;20525;-68
2022/04/09 06:29:22;;;;;;;8.18;3.75;;;;;;;;;;4878339;29;20053;-68
2022/04/09 06:31:57;;;;;;;7.93;3.80;;;;;;;;;;4842980;29;20410;-68
2022/04/09 06:34:28;;;;;;;20.90;3.92;;;;;;;;;;4793192;29;20495;-67
2022/04/09 06:37:03;;;;;;;12.57;3.90;;;;;;;;;;4831796;29;20054;-68
2022/04/09 06:39:39;;;;;;;8.40;4.38;;;;;;;;;;4842421;29;20073;-67
2022/04/09 06:42:10;;;;;;;7.75;4.05;;;;;;;;;;4836057;29;20061;-67
2022/04/09 06:45:05;;;;;;;8.52;4.25;;;;;;;;;;4825198;29;20081;-67
2022/04/09 06:47:55;;;;;;;10.32;4.15;;;;;;;;;;4847251;29;20060;-68
2022/04/09 06:50:26;;;;;;;8.85;4.00;;;;;;;;;;4844211;29;20442;-68
2022/04/09 06:52:56;;;;;;;7.43;3.90;;;;;;;;;;4859660;29;20069;-68
2022/04/09 06:55:33;;;;;;;9.50;4.32;;;;;;;;;;4859657;29;20057;-68
2022/04/09 06:58:03;;;;;;;10.90;4.32;;;;;;;;;;4828985;29;20506;-68
2022/04/09 07:00:41;;;;;;;8.75;4.07;;;;;;;;;;4858831;29;20064;-68
2022/04/09 07:03:13;;;;;;;7.90;3.78;;;;;;;;;;4859210;29;20498;-68
2022/04/09 07:05:44;;;;;;;7.90;3.90;;;;;;;;;;4878266;29;20057;-67
2022/04/09 07:08:14;;;;;;;8.35;3.78;;;;;;;;;;4892904;29;20442;-67
2022/04/09 07:10:45;;;;;;;7.25;3.50;;;;;;;;;;4896056;29;20064;-67
2022/04/09 07:13:15;;;;;;;9.88;4.40;;;;;;;;;;4896642;29;20048;-67
2022/04/09 07:15:46;;;;;;;7.75;3.95;;;;;;;;;;4896722;29;20429;-67
2022/04/09 07:18:16;;;;;;;8.85;4.10;;;;;;;;;;4896220;29;20060;-68
2022/04/09 07:20:46;;;;;;;10.25;3.97;;;;;;;;;;4913306;29;20052;-67
2022/04/09 07:23:17;;;;;;;10.93;4.22;;;;;;;;;;4915455;29;20059;-67
2022/04/09 07:25:48;;;;;;;20.55;4.03;;;;;;;;;;4884224;29;20060;-67
2022/04/09 07:28:18;;;;;;;9.70;4.22;;;;;;;;;;4887084;29;20566;-67
2022/04/09 07:30:49;;;;;;;13.85;4.05;;;;;;;;;;4934405;29;20523;-67
2022/04/09 07:33:19;;;;;;;10.10;4.07;;;;;;;;;;4934197;29;20553;-67
2022/04/09 07:35:57;;;;;;;8.32;4.22;;;;;;;;;;4934120;29;20158;-67
2022/04/09 07:38:28;;;;;;;14.00;4.22;;;;;;;;;;4966144;28;20058;-67
2022/04/09 07:40:58;;;;;;;9.43;4.25;;;;;;;;;;5013638;28;20069;-67
2022/04/09 07:43:29;;;;;;;13.55;4.00;;;;;;;;;;4998378;28;20049;-67
2022/04/09 07:46:00;;;;;;;12.77;4.32;;;;;;;;;;5031877;28;20068;-67
2022/04/09 07:48:31;;;;;;;10.93;4.53;;;;;;;;;;5031336;28;20048;-67
2022/04/09 07:51:01;;;;;;;9.35;4.53;;;;;;;;;;4982502;28;20052;-67
2022/04/09 07:53:32;;;;;;;13.77;4.63;;;;;;;;;;5031098;28;20056;-67
2022/04/09 07:56:03;;;;;;;10.07;4.43;;;;;;;;;;5054753;28;20123;-67
2022/04/09 07:58:34;;;;;;;10.18;3.85;;;;;;;;;;5073531;28;20044;-67
2022/04/09 08:01:04;;;;;;;15.05;4.65;;;;;;;;;;5038169;28;20415;-67
2022/04/09 08:03:35;;;;;;;7.10;3.92;;;;;;;;;;5022734;28;20060;-67
2022/04/09 08:06:06;;;;;;;8.65;3.78;;;;;;;;;;5055976;28;20040;-67
2022/04/09 08:08:37;;;;;;;10.13;3.70;;;;;;;;;;5073258;28;20368;-67
2022/04/09 08:11:07;;;;;;;7.65;3.15;;;;;;;;;;5050573;28;20488;-67
2022/04/09 08:13:39;;;;;;;7.72;3.38;;;;;;;;;;4985796;28;20041;-67
2022/04/09 08:16:09;;;;;;;11.15;3.60;;;;;;;;;;5050821;28;20504;-67
2022/04/09 08:18:40;;;;;;;9.02;3.17;;;;;;;;;;5010456;28;20061;-67
2022/04/09 08:21:11;;;;;;;8.93;2.95;;;;;;;;;;4994414;28;20454;-67
2022/04/09 08:23:41;;;;;;;5.43;2.88;;;;;;;;;;5010903;28;20058;-67
2022/04/09 08:26:12;;;;;;;6.43;3.10;;;;;;;;;;4991070;28;20054;-67
2022/04/09 08:28:42;;;;;;;7.63;3.03;;;;;;;;;;4991282;28;20058;-68
2022/04/09 08:31:13;;;;;;;9.88;3.45;;;;;;;;;;4991395;28;20081;-68
2022/04/09 08:33:44;;;;;;;6.32;3.28;;;;;;;;;;4991137;28;20781;-67
2022/04/09 08:36:15;;;;;;;7.63;3.53;;;;;;;;;;4943262;28;20058;-67
2022/04/09 08:38:45;;;;;;;6.40;3.20;;;;;;;;;;4959646;28;20058;-67
2022/04/09 08:41:16;;;;;;;7.10;3.78;;;;;;;;;;4974601;28;20065;-67
2022/04/09 08:43:46;;;;;;;8.52;3.78;;;;;;;;;;4971125;28;20046;-66
2022/04/09 08:46:17;;;;;;;7.20;3.90;;;;;;;;;;4971348;28;20058;-68
2022/04/09 08:48:49;;;;;;;8.95;3.85;;;;;;;;;;4955699;28;20065;-68
2022/04/09 08:51:19;;;;;;;;;;;;;;;;;;4971750;28;20054;-67
2022/04/09 08:54:02;;;;;;;10.18;3.33;;;;;;;;;;4971484;28;19929;-67
2022/04/09 08:56:38;;;;;;;10.90;3.40;;;;;;;;;;4951762;28;20050;-67
2022/04/09 08:59:09;;;;;;;11.02;3.42;;;;;;;;;;4990472;28;20402;-67
2022/04/09 09:01:39;;;;;;;12.02;3.13;;;;;;;;;;4990658;28;20046;-67
2022/04/09 09:04:10;;;;;;;6.50;3.17;;;;;;;;;;5015682;28;20072;-67
2022/04/09 09:06:44;;;;;;;7.72;3.65;;;;;;;;;;5029884;28;20053;-68
2022/04/09 09:09:31;;;;;;;14.30;3.85;;;;;;;;;;5029909;28;20054;-68
2022/04/09 09:12:03;;;;;;;11.43;3.50;;;;;;;;;;5014492;28;20374;-68
2022/04/09 09:14:36;;;;;;;14.43;3.20;;;;;;;;;;5041068;28;20053;-68
2022/04/09 09:17:06;;;;;;;8.93;2.75;;;;;;;;;;5072059;28;20060;-67
2022/04/09 09:19:50;;;;;;;5.25;2.47;;;;;;;;;;5072121;28;20052;-68
2022/04/09 09:22:20;;;;;;;5.93;2.45;;;;;;;;;;5036978;28;20052;-68
2022/04/09 09:25:09;;;;;;;7.32;2.55;;;;;;;;;;5071427;28;20049;-67
2022/04/09 09:27:40;;;;;;;9.73;2.53;;;;;;;;;;5071763;28;20037;-67
2022/04/09 09:30:13;;;;;;;7.30;2.40;;;;;;;;;;5071897;28;20047;-67
2022/04/09 09:32:44;;;;;;;5.63;2.92;;;;;;;;;;5020240;28;20491;-68
2022/04/09 09:35:14;;;;;;;5.03;2.60;;;;;;;;;;5071968;28;20032;-68
2022/04/09 09:37:45;;;;;;;5.65;2.35;;;;;;;;;;5071695;28;20041;-68
2022/04/09 09:40:34;;;;;;;5.95;2.22;;;;;;;;;;5071683;28;20040;-68
2022/04/09 09:43:14;;;;;;;6.47;2.55;;;;;;;;;;5071634;28;20041;-68
2022/04/09 09:45:46;;;;;;;4.60;2.42;;;;;;;;;;5071704;28;20041;-68
2022/04/09 09:48:23;;;;;;;;;;;;;;;;;;5037939;28;20053;-68
2022/04/09 09:50:58;;;;;;;11.13;2.63;;;;;;;;;;5071681;28;19931;-68
2022/04/09 09:53:40;;;;;;;6.05;2.53;;;;;;;;;;5036357;28;20049;-69
2022/04/09 09:56:12;;;;;;;6.07;2.78;;;;;;;;;;5071519;28;20048;-68
2022/04/09 09:58:43;;;;;;;8.23;2.88;;;;;;;;;;5071703;28;20484;-68
2022/04/09 10:01:18;;;;;;;5.30;2.85;;;;;;;;;;5071642;28;20510;-68
2022/04/09 10:03:49;;;;;;;12.25;2.92;;;;;;;;;;5048984;28;20420;-68
2022/04/09 10:06:24;;;;;;;9.73;3.22;;;;;;;;;;5029024;28;20046;-68
2022/04/09 10:08:55;;;;;;;11.43;3.20;;;;;;;;;;4996528;28;20065;-68
2022/04/09 10:11:27;;;;;;;11.38;2.80;;;;;;;;;;5029167;28;20469;-69
2022/04/09 10:14:00;;;;;;;18.75;3.33;;;;;;;;;;5029324;28;20046;-67
2022/04/09 10:16:36;;;;;;;17.38;3.22;;;;;;;;;;5028925;28;20061;-68
2022/04/09 10:19:09;;;;;;;15.57;3.58;;;;;;;;;;4989465;28;20059;-68
2022/04/09 10:21:42;;;;;;;38.15;4.88;;;;;;;;;;4943688;28;20057;-68
2022/04/09 10:24:25;;;;;;;18.40;4.00;;;;;;;;;;4973952;28;20050;-68
2022/04/09 10:26:58;;;;;;;10.68;4.05;;;;;;;;;;4989782;28;20055;-68
2022/04/09 10:29:47;;;;;;;16.05;5.15;;;;;;;;;;4989762;28;20457;-68
2022/04/09 10:32:56;;;;;;;12.32;6.03;;;;;;;;;;4989693;28;20066;-68
2022/04/09 10:35:40;;;;;;;9.07;5.00;;;;;;;;;;4989561;28;20163;-67
2022/04/09 10:38:15;;;;;;;9.93;4.85;;;;;;;;;;4993213;28;20058;-68
2022/04/09 10:40:57;;;;;;;7.72;4.25;;;;;;;;;;4993235;28;20061;-67
2022/04/09 10:43:28;;;;;;;10.25;4.88;;;;;;;;;;4998892;28;20052;-67
2022/04/09 10:46:02;;;;;;;11.45;4.78;;;;;;;;;;4979723;28;20524;-67
2022/04/09 10:48:35;;;;;;;25.90;5.53;;;;;;;;;;5012619;28;20058;-68
2022/04/09 10:51:11;;;;;;;15.63;5.43;;;;;;;;;;5012608;28;20133;-68
2022/04/09 10:53:43;;;;;;;23.58;5.55;;;;;;;;;;5012659;28;20387;-67
2022/04/09 10:56:14;;;;;;;27.98;7.43;;;;;;;;;;4989272;28;20056;-67
2022/04/09 10:59:08;;;;;;;25.02;7.70;;;;;;;;;;4986775;28;20130;-68
2022/04/09 11:01:51;;;;;;;23.33;7.25;;;;;;;;;;5061471;28;20060;-68
2022/04/09 11:04:34;;;;;;;32.22;7.40;;;;;;;;;;5074468;28;20051;-68
2022/04/09 11:07:08;;;;;;;26.88;7.85;;;;;;;;;;5074293;28;20052;-68
2022/04/09 11:09:50;;;;;;;31.02;8.95;;;;;;;;;;5074367;28;20048;-68
2022/04/09 11:12:26;;;;;;;32.33;8.30;;;;;;;;;;5074270;28;20051;-68
2022/04/09 11:15:02;;;;;;;39.00;9.23;;;;;;;;;;5074293;28;20079;-67
2022/04/09 11:17:37;;;;;;;41.25;10.52;;;;;;;;;;5074157;28;20705;-67
2022/04/09 11:20:17;;;;;;;39.95;10.80;;;;;;;;;;5073890;28;20048;-67
2022/04/09 11:22:52;;;;;;;39.25;10.90;;;;;;;;;;5073987;28;20044;-68
2022/04/09 11:25:25;;;;;;;27.60;9.60;;;;;;;;;;5011713;28;20054;-68
2022/04/09 11:28:19;;;;;;;45.13;10.70;;;;;;;;;;5011876;28;20069;-67
2022/04/09 11:31:04;;;;;;;41.63;10.57;;;;;;;;;;4979133;28;20069;-68
2022/04/09 11:33:35;;;;;;;38.17;9.40;;;;;;;;;;5012058;28;20061;-67
2022/04/09 11:36:05;;;;;;;33.58;9.02;;;;;;;;;;5011840;28;20050;-67
2022/04/09 11:38:36;;;;;;;35.55;10.15;;;;;;;;;;5011954;28;20061;-68
2022/04/09 11:41:20;;;;;;;33.97;8.00;;;;;;;;;;5011658;28;20065;-68
2022/04/09 11:43:51;;;;;;;25.65;7.32;;;;;;;;;;4963376;28;20058;-68
2022/04/09 11:46:21;;;;;;;29.58;8.85;;;;;;;;;;5011966;28;20505;-67
2022/04/09 11:49:02;;;;;;;26.70;7.93;;;;;;;;;;4995620;28;20054;-68
2022/04/09 11:51:34;;;;;;;19.05;6.90;;;;;;;;;;5011667;28;20173;-67
2022/04/09 11:54:15;;;;;;;19.70;6.35;;;;;;;;;;4991728;28;20061;-68
2022/04/09 11:56:46;;;;;;;23.23;7.03;;;;;;;;;;5015598;28;20054;-68
2022/04/09 11:59:18;;;;;;;19.05;6.82;;;;;;;;;;5031292;28;20571;-68
2022/04/09 12:01:52;;;;;;;16.67;5.78;;;;;;;;;;4997421;28;20049;-68
2022/04/09 12:04:23;;;;;;;17.67;6.28;;;;;;;;;;5030912;28;20053;-68
2022/04/09 12:06:54;;;;;;;17.05;6.22;;;;;;;;;;5030951;28;20045;-67
2022/04/09 12:09:25;;;;;;;15.57;5.50;;;;;;;;;;5031054;28;20053;-67
2022/04/09 12:11:55;;;;;;;15.25;5.20;;;;;;;;;;4998351;28;20056;-67
2022/04/09 12:14:26;;;;;;;12.82;5.25;;;;;;;;;;5030631;28;20065;-68
2022/04/09 12:16:56;;;;;;;10.52;3.80;;;;;;;;;;5030961;28;20053;-68
2022/04/09 12:19:32;;;;;;;9.60;4.00;;;;;;;;;;5030629;28;20524;-67
2022/04/09 12:22:14;;;;;;;9.43;4.00;;;;;;;;;;5030853;28;20046;-67
2022/04/09 12:24:57;;;;;;;8.20;3.25;;;;;;;;;;5030544;28;20072;-68
2022/04/09 12:27:45;;;;;;;7.15;3.00;;;;;;;;;;5015009;28;20062;-67
2022/04/09 12:30:15;;;;;;;8.50;3.55;;;;;;;;;;5030898;28;20054;-68
2022/04/09 12:32:46;;;;;;;9.98;3.72;;;;;;;;;;5027970;28;20057;-67
2022/04/09 12:35:17;;;;;;;9.23;3.95;;;;;;;;;;4981665;28;20057;-67
2022/04/09 12:37:53;;;;;;;5.72;2.97;;;;;;;;;;4981893;28;20477;-67
2022/04/09 12:40:25;;;;;;;7.47;3.13;;;;;;;;;;5030438;28;20117;-67
2022/04/09 12:42:57;;;;;;;4.70;2.58;;;;;;;;;;5031999;28;20052;-68
2022/04/09 12:45:28;;;;;;;5.95;2.72;;;;;;;;;;5063948;28;20431;-68
2022/04/09 12:48:06;;;;;;;6.13;2.90;;;;;;;;;;5064316;28;20053;-68
2022/04/09 12:50:36;;;;;;;6.20;3.05;;;;;;;;;;5044227;28;20056;-67
2022/04/09 12:53:07;;;;;;;5.47;2.60;;;;;;;;;;5045084;28;20068;-67
2022/04/09 12:55:39;;;;;;;10.85;3.13;;;;;;;;;;4998883;28;20064;-67
2022/04/09 12:58:10;;;;;;;8.00;3.72;;;;;;;;;;5015812;28;20204;-66
2022/04/09 13:00:41;;;;;;;7.57;3.70;;;;;;;;;;4999195;28;20096;-67
2022/04/09 13:03:13;;;;;;;6.35;3.03;;;;;;;;;;5014588;28;20057;-66
2022/04/09 13:05:44;;;;;;;6.30;2.45;;;;;;;;;;5042867;28;20197;-69
2022/04/09 13:08:15;;;;;;;7.60;4.28;;;;;;;;;;4982482;28;20058;-68
2022/04/09 13:10:46;;;;;;;4.90;2.50;;;;;;;;;;4964579;28;20066;-69
2022/04/09 13:13:20;;;;;;;5.90;2.97;;;;;;;;;;4932206;28;20065;-68
2022/04/09 13:15:51;;;;;;;21.15;13.95;;;;;;;;;;4967934;28;20055;-67
2022/04/09 13:18:23;;;;;;;13.45;8.68;;;;;;;;;;4969359;28;20063;-67
2022/04/09 13:20:53;;;;;;;19.05;12.27;;;;;;;;;;4953610;28;20069;-67
2022/04/09 13:23:26;;;;;;;21.83;14.32;;;;;;;;;;4969907;28;20046;-68
2022/04/09 13:25:57;;;;;;;6.40;2.72;;;;;;;;;;4966343;28;20066;-67
2022/04/09 13:28:29;;;;;;;7.28;2.85;;;;;;;;;;4960159;28;20082;-67
2022/04/09 13:31:00;;;;;;;6.57;3.70;;;;;;;;;;4936345;28;20069;-67
2022/04/09 13:33:30;;;;;;;6.88;2.80;;;;;;;;;;4984085;28;20077;-67
2022/04/09 13:36:01;;;;;;;7.22;4.18;;;;;;;;;;4984601;28;20165;-67
2022/04/09 13:38:32;;;;;;;6.65;3.10;;;;;;;;;;4989311;28;20042;-67
2022/04/09 13:41:03;;;;;;;5.18;3.05;;;;;;;;;;5004579;28;20449;-67
2022/04/09 13:43:33;;;;;;;11.20;5.65;;;;;;;;;;4988710;28;20575;-67
2022/04/09 13:46:05;;;;;;;6.78;3.33;;;;;;;;;;5027459;28;20072;-69
2022/04/09 13:48:36;;;;;;;;;;;;;;;;;;5040363;28;20049;-68
2022/04/09 13:51:06;;;;;;;4.63;2.53;;;;;;;;;;5042502;28;19925;-68
2022/04/09 13:53:36;;;;;;;5.32;2.05;;;;;;;;;;5019992;28;20057;-69
2022/04/09 13:56:07;;;;;;;4.75;2.22;;;;;;;;;;5037557;28;20817;-69
2022/04/09 13:58:38;;;;;;;4.60;2.33;;;;;;;;;;5059793;28;20064;-69
2022/04/09 14:01:12;;;;;;;4.80;2.20;;;;;;;;;;5058015;28;20056;-69
2022/04/09 14:03:43;;;;;;;3.88;2.20;;;;;;;;;;5056712;28;20049;-67
2022/04/09 14:06:17;;;;;;;4.22;2.38;;;;;;;;;;5056584;28;20056;-67
2022/04/09 14:08:48;;;;;;;3.97;2.20;;;;;;;;;;5053382;28;20044;-67
2022/04/09 14:11:19;;;;;;;4.72;2.30;;;;;;;;;;5054114;28;20056;-66
2022/04/09 14:13:49;;;;;;;8.85;5.07;;;;;;;;;;5056925;28;20052;-67
2022/04/09 14:16:20;;;;;;;10.23;4.68;;;;;;;;;;5023612;28;20060;-67
2022/04/09 14:18:51;;;;;;;6.80;4.00;;;;;;;;;;5014589;28;20567;-66
2022/04/09 14:21:26;;;;;;;9.05;5.15;;;;;;;;;;4990228;28;20054;-66
2022/04/09 14:24:00;;;;;;;40.58;21.08;;;;;;;;;;4982102;28;20058;-69
2022/04/09 14:26:31;;;;;;;8.80;5.15;;;;;;;;;;4948222;28;20054;-66
2022/04/09 14:29:04;;;;;;;6.75;3.83;;;;;;;;;;4982355;28;20055;-68
2022/04/09 14:31:35;;;;;;;7.28;4.25;;;;;;;;;;4981464;28;20050;-67
2022/04/09 14:34:05;;;;;;;11.25;4.22;;;;;;;;;;4989362;28;20058;-67
2022/04/09 14:36:36;;;;;;;7.47;4.07;;;;;;;;;;5005287;28;20527;-66
2022/04/09 14:39:07;;;;;;;6.82;3.63;;;;;;;;;;4944830;28;20508;-68
2022/04/09 14:41:38;;;;;;;7.03;3.80;;;;;;;;;;5006974;28;20533;-66
2022/04/09 14:44:10;;;;;;;6.78;3.65;;;;;;;;;;4991101;28;20055;-65
2022/04/09 14:46:41;;;;;;;5.85;3.47;;;;;;;;;;4991167;28;20049;-66
2022/04/09 14:49:12;;;;;;;5.10;3.15;;;;;;;;;;4959605;28;20088;-65
2022/04/09 14:51:43;;;;;;;4.35;2.28;;;;;;;;;;4957239;28;20506;-67
2022/04/09 14:54:13;;;;;;;4.07;2.45;;;;;;;;;;4986762;28;20156;-70
2022/04/09 14:56:44;;;;;;;5.40;2.80;;;;;;;;;;4970525;28;20062;-68
2022/04/09 14:59:15;;;;;;;4.65;2.67;;;;;;;;;;5009885;28;20076;-66
2022/04/09 15:01:47;;;;;;;5.13;2.80;;;;;;;;;;5025893;28;20076;-67
2022/04/09 15:04:18;;;;;;;5.72;2.83;;;;;;;;;;5030455;28;20053;-66
2022/04/09 15:06:49;;;;;;;5.18;2.70;;;;;;;;;;5010979;28;20049;-66
2022/04/09 15:09:21;;;;;;;4.90;2.72;;;;;;;;;;5016637;28;20115;-66
2022/04/09 15:11:52;;;;;;;7.45;3.78;;;;;;;;;;5011227;28;20533;-66
2022/04/09 15:14:23;;;;;;;6.38;3.40;;;;;;;;;;5011950;28;20387;-65
2022/04/09 15:16:55;;;;;;;7.53;4.20;;;;;;;;;;5010626;28;20054;-65